Time;durP1;ratioP1;P1;durP2;ratioP2;P2;SDS_P1;SDS_P2;PMS_P1;PMS_P2;Temp;Humidity;BMP_temperature;BMP_pressure;BME280_temperature;BME280_humidity;BME280_pressure;Samples;Min_cycle;Max_cycle;Signal;HPM_P1;HPM_P2
2023/01/13 00:01:38;;;;;;;30.60;15.20;;;;;;;-0.43;100.00;101634.95;109159;1250;72119;-70
2023/01/13 00:04:10;;;;;;;32.40;15.70;;;;;;;-0.35;100.00;101635.70;109130;1254;60748;-71
2023/01/13 00:06:39;;;;;;;27.90;13.20;;;;;;;-0.33;100.00;101634.48;109091;1250;60907;-68
2023/01/13 00:09:07;;;;;;;29.10;15.80;;;;;;;-0.30;100.00;101630.50;109131;1250;75386;-71
2023/01/13 00:11:36;;;;;;;23.10;13.00;;;;;;;-0.42;100.00;101633.91;109116;1251;70071;-69
2023/01/13 00:14:05;;;;;;;31.30;15.50;;;;;;;-0.38;100.00;101635.39;109125;1250;68073;-68
2023/01/13 00:16:34;;;;;;;28.90;14.80;;;;;;;-0.37;100.00;101628.20;109142;1254;73013;-69
2023/01/13 00:19:02;;;;;;;29.40;14.70;;;;;;;-0.39;100.00;101628.73;109142;1253;59572;-69
2023/01/13 00:21:31;;;;;;;26.20;14.30;;;;;;;-0.42;100.00;101630.14;109057;1251;59449;-70
2023/01/13 00:24:00;;;;;;;28.10;14.60;;;;;;;-0.48;100.00;101633.64;109174;1252;73554;-71
2023/01/13 00:26:34;;;;;;;24.40;13.90;;;;;;;-0.44;100.00;101634.62;109137;1250;71995;-69
2023/01/13 00:29:03;;;;;;;34.70;14.50;;;;;;;-0.39;100.00;101634.39;109172;1250;71017;-69
2023/01/13 00:31:32;;;;;;;28.80;14.60;;;;;;;-0.40;100.00;101630.45;109035;1250;72406;-69
2023/01/13 00:34:01;;;;;;;25.70;14.10;;;;;;;-0.48;100.00;101629.88;109126;1254;59701;-68
2023/01/13 00:36:31;;;;;;;24.60;13.70;;;;;;;-0.47;100.00;101626.42;109111;1251;60212;-69
2023/01/13 00:38:59;;;;;;;28.30;14.50;;;;;;;-0.54;100.00;101626.17;109084;1250;73418;-69
2023/01/13 00:43:21;;;;;;;29.40;15.20;;;;;;;-0.52;100.00;101621.88;109153;1251;69601;-68
2023/01/13 00:44:17;;;;;;;24.80;13.00;;;;;;;-0.47;100.00;101614.46;109151;1251;70517;-68
2023/01/13 00:46:46;;;;;;;30.70;13.80;;;;;;;-0.48;100.00;101611.39;109134;1251;73328;-68
2023/01/13 00:49:14;;;;;;;25.60;14.10;;;;;;;-0.39;100.00;101610.61;108904;1254;61044;-69
2023/01/13 00:51:43;;;;;;;26.30;13.00;;;;;;;-0.41;100.00;101606.69;109153;1250;60241;-69
2023/01/13 00:54:13;;;;;;;27.90;14.20;;;;;;;-0.50;100.00;101611.41;109071;1250;72435;-69
2023/01/13 00:56:41;;;;;;;25.20;13.00;;;;;;;-0.65;100.00;101614.83;109119;1250;71426;-69
2023/01/13 00:59:12;;;;;;;23.60;13.40;;;;;;;-0.59;100.00;101613.08;109146;1250;69300;-70
2023/01/13 01:01:41;;;;;;;23.90;13.70;;;;;;;-0.61;100.00;101613.09;108920;1255;73076;-69
2023/01/13 01:04:10;;;;;;;26.00;13.30;;;;;;;-0.59;100.00;101616.84;109123;1254;62174;-67
2023/01/13 01:06:39;;;;;;;30.30;14.60;;;;;;;-0.62;100.00;101621.83;109123;1250;58120;-68
2023/01/13 01:09:13;;;;;;;23.20;12.50;;;;;;;-0.50;100.00;101621.52;109096;1250;72361;-68
2023/01/13 01:11:43;;;;;;;24.90;12.90;;;;;;;-0.46;100.00;101619.59;108906;1250;71881;-69
2023/01/13 01:14:12;;;;;;;21.90;13.10;;;;;;;-0.45;100.00;101616.82;108963;1251;70387;-70
2023/01/13 01:16:41;;;;;;;25.30;13.10;;;;;;;-0.41;100.00;101617.64;109125;1251;71302;-68
2023/01/13 01:19:10;;;;;;;32.50;13.70;;;;;;;-0.42;100.00;101612.16;109061;1250;61315;-69
2023/01/13 01:21:38;;;;;;;20.50;12.80;;;;;;;-0.50;100.00;101613.64;109189;1250;61604;-68
2023/01/13 01:24:08;;;;;;;23.40;11.70;;;;;;;-0.47;100.00;101612.57;109146;1251;72823;-67
2023/01/13 01:26:37;;;;;;;23.30;11.90;;;;;;;-0.45;100.00;101615.80;109068;1251;70663;-68
2023/01/13 01:29:06;;;;;;;27.60;13.00;;;;;;;-0.47;100.00;101618.91;109179;1251;69710;-68
2023/01/13 01:31:34;;;;;;;24.30;13.60;;;;;;;-0.40;100.00;101618.31;109129;1250;73385;-68
2023/01/13 01:34:04;;;;;;;25.80;13.80;;;;;;;-0.42;100.00;101616.80;109158;1254;62301;-68
2023/01/13 01:36:34;;;;;;;26.60;13.80;;;;;;;-0.47;100.00;101619.76;109171;1251;61677;-69
2023/01/13 01:39:03;;;;;;;24.70;13.00;;;;;;;-0.46;100.00;101618.55;109203;1250;75207;-69
2023/01/13 01:41:34;;;;;;;26.10;13.20;;;;;;;-0.48;100.00;101619.09;109130;1251;70307;-68
2023/01/13 01:44:40;;;;;;;24.20;13.10;;;;;;;-0.44;100.00;101616.99;108991;1250;68772;-68
2023/01/13 01:47:14;;;;;;;22.60;12.80;;;;;;;-0.55;100.00;101611.65;109183;1254;71975;-68
2023/01/13 01:49:44;;;;;;;28.60;13.30;;;;;;;-0.55;100.00;101611.81;108936;1251;61338;-68
2023/01/13 01:52:21;;;;;;;28.20;13.20;;;;;;;-0.54;100.00;101609.76;108964;1251;59725;-70
2023/01/13 01:55:04;;;;;;;24.50;13.50;;;;;;;-0.51;100.00;101611.59;109163;1253;72410;-68
2023/01/13 01:57:49;;;;;;;19.30;12.20;;;;;;;-0.52;100.00;101608.53;109121;1251;72169;-68
2023/01/13 02:00:18;;;;;;;22.70;11.90;;;;;;;-0.55;100.00;101607.55;109153;1250;69413;-69
2023/01/13 02:02:50;;;;;;;27.70;12.70;;;;;;;-0.58;100.00;101605.01;109077;1251;71851;-69
2023/01/13 02:05:19;;;;;;;24.50;12.00;;;;;;;-0.51;100.00;101609.03;109133;1251;61543;-68
2023/01/13 02:07:54;;;;;;;28.30;13.40;;;;;;;-0.52;100.00;101612.31;109048;1254;59930;-68
2023/01/13 02:10:26;;;;;;;24.20;12.50;;;;;;;-0.54;100.00;101613.34;109200;1251;73589;-67
2023/01/13 02:12:59;;;;;;;30.90;12.50;;;;;;;-0.45;100.00;101614.77;109175;1251;70607;-68
2023/01/13 02:15:47;;;;;;;;;;;;;;;-0.52;100.00;101611.27;109115;1250;67928;-68
2023/01/13 02:18:38;;;;;;;23.10;12.40;;;;;;;-0.56;100.00;101610.97;109004;1250;63077;-70
2023/01/13 02:21:12;;;;;;;26.50;11.70;;;;;;;-0.52;100.00;101608.20;109206;1253;61098;-68
2023/01/13 02:27:29;;;;;;;24.50;11.60;;;;;;;-0.54;100.00;101609.23;108927;1257;72403;-68
2023/01/13 02:33:09;;;;;;;24.90;12.00;;;;;;;-0.58;100.00;101608.61;109137;1251;70124;-68
2023/01/13 02:36:00;;;;;;;22.40;11.80;;;;;;;-0.58;100.00;101604.50;109125;1251;73661;-68
2023/01/13 02:38:38;;;;;;;23.10;12.70;;;;;;;-0.57;100.00;101602.27;109107;1254;60413;-68
2023/01/13 02:44:37;;;;;;;25.60;11.90;;;;;;;-0.55;100.00;101591.63;109106;1250;74426;-69
2023/01/13 02:47:21;;;;;;;20.90;11.30;;;;;;;-0.60;100.00;101588.43;109123;1251;71656;-68
2023/01/13 02:50:01;;;;;;;20.00;12.00;;;;;;;-0.65;100.00;101587.98;109003;1250;69303;-68
2023/01/13 02:52:35;;;;;;;25.90;12.20;;;;;;;-0.75;100.00;101585.88;109079;1251;72668;-69
2023/01/13 02:55:14;;;;;;;26.00;12.30;;;;;;;-0.75;100.00;101586.39;109138;1254;60513;-68
2023/01/13 02:57:45;;;;;;;23.80;12.60;;;;;;;-0.75;100.00;101585.02;108912;1251;59712;-69
2023/01/13 03:00:16;;;;;;;20.70;11.80;;;;;;;-0.76;100.00;101585.38;109092;1254;71507;-68
2023/01/13 03:02:47;;;;;;;24.90;12.00;;;;;;;-0.90;100.00;101590.66;109091;1251;72233;-68
2023/01/13 03:05:16;;;;;;;24.10;12.50;;;;;;;-0.92;100.00;101587.09;109091;1250;68868;-68
2023/01/13 03:08:09;;;;;;;25.10;13.10;;;;;;;-0.95;100.00;101590.04;109034;1250;71118;-68
2023/01/13 03:11:06;;;;;;;27.90;13.00;;;;;;;-1.00;100.00;101588.56;108818;1251;62140;-68
2023/01/13 03:14:04;;;;;;;26.70;13.30;;;;;;;-0.95;100.00;101591.58;108946;1251;59535;-69
2023/01/13 03:17:05;;;;;;;24.80;12.50;;;;;;;-0.96;100.00;101590.75;108828;1250;74646;-68
2023/01/13 03:19:52;;;;;;;24.20;11.50;;;;;;;-0.87;100.00;101591.66;109137;1253;70835;-69
2023/01/13 03:22:47;;;;;;;25.10;13.60;;;;;;;-0.88;100.00;101590.81;109124;1250;68653;-69
2023/01/13 03:25:42;;;;;;;22.50;11.80;;;;;;;-0.78;100.00;101592.93;109070;1250;71898;-69
2023/01/13 03:28:30;;;;;;;25.40;12.00;;;;;;;-0.79;100.00;101587.98;109106;1252;60259;-69
2023/01/13 03:31:11;;;;;;;20.20;11.30;;;;;;;-0.75;100.00;101590.66;109076;1254;59224;-67
2023/01/13 03:34:08;;;;;;;27.30;11.00;;;;;;;-0.80;100.00;101590.89;108934;1251;73589;-68
2023/01/13 03:36:39;;;;;;;22.80;11.10;;;;;;;-0.93;100.00;101593.27;109135;1251;69891;-69
2023/01/13 03:39:15;;;;;;;26.30;11.70;;;;;;;-0.92;100.00;101592.91;109091;1250;67671;-69
2023/01/13 03:41:56;;;;;;;25.90;12.10;;;;;;;-0.89;100.00;101589.97;109086;1251;73033;-68
2023/01/13 03:44:48;;;;;;;21.20;12.10;;;;;;;-0.86;100.00;101588.91;109041;1251;61121;-68
2023/01/13 03:47:32;;;;;;;23.40;12.40;;;;;;;-0.81;100.00;101585.77;108816;1251;60897;-68
2023/01/13 03:50:17;;;;;;;26.20;12.90;;;;;;;-0.82;100.00;101584.94;109024;1251;74416;-68
2023/01/13 03:52:52;;;;;;;23.90;11.90;;;;;;;-0.90;100.00;101586.91;109021;1251;72976;-69
2023/01/13 03:55:30;;;;;;;22.10;12.00;;;;;;;-0.98;100.00;101589.22;108926;1254;67973;-70
2023/01/13 03:58:13;;;;;;;29.90;13.60;;;;;;;-0.95;100.00;101589.34;108952;1251;73904;-69
2023/01/13 04:00:59;;;;;;;21.80;12.60;;;;;;;-0.96;100.00;101588.52;108936;1253;60169;-70
2023/01/13 04:03:43;;;;;;;27.50;13.20;;;;;;;-0.89;100.00;101592.19;108993;1251;61172;-74
2023/01/13 04:06:28;;;;;;;24.50;11.70;;;;;;;-0.89;100.00;101592.54;108750;1257;73086;-71
2023/01/13 04:09:13;;;;;;;23.30;11.80;;;;;;;-0.91;100.00;101593.76;108957;1254;69519;-72
2023/01/13 04:11:49;;;;;;;22.80;13.30;;;;;;;-1.02;100.00;101595.76;108742;1251;69638;-69
2023/01/13 04:14:19;;;;;;;27.50;12.60;;;;;;;-1.05;100.00;101594.76;109091;1251;74281;-69
2023/01/13 04:16:48;;;;;;;27.10;12.80;;;;;;;-1.03;100.00;101594.05;108915;1255;59353;-70
2023/01/13 04:19:17;;;;;;;23.20;12.50;;;;;;;-1.00;100.00;101596.08;109173;1254;58913;-70
2023/01/13 04:21:46;;;;;;;23.40;12.30;;;;;;;-0.96;100.00;101595.36;109168;1251;71649;-69
2023/01/13 04:24:15;;;;;;;28.40;12.70;;;;;;;-0.99;100.00;101595.04;109090;1251;69525;-69
2023/01/13 04:26:44;;;;;;;24.20;12.70;;;;;;;-1.07;100.00;101597.01;109127;1252;70455;-69
2023/01/13 04:29:12;;;;;;;25.00;12.30;;;;;;;-1.21;100.00;101594.23;108938;1250;74308;-69
2023/01/13 04:31:43;;;;;;;27.70;12.60;;;;;;;-1.19;100.00;101595.42;109166;1254;60804;-69
2023/01/13 04:34:12;;;;;;;25.70;12.40;;;;;;;-1.17;100.00;101590.27;109137;1251;60498;-70
2023/01/13 04:36:41;;;;;;;21.80;12.30;;;;;;;-1.19;100.00;101594.21;109174;1251;71671;-71
2023/01/13 04:39:10;;;;;;;25.30;11.80;;;;;;;-1.21;100.00;101592.70;109074;1250;72272;-70
2023/01/13 04:41:57;;;;;;;29.90;13.50;;;;;;;-1.19;100.00;101596.96;109141;1251;71840;-69
2023/01/13 04:44:26;;;;;;;24.80;12.70;;;;;;;-1.23;100.00;101595.96;109193;1251;74057;-69
2023/01/13 04:46:56;;;;;;;26.80;13.00;;;;;;;-1.18;100.00;101601.90;109112;1254;61930;-67
2023/01/13 04:49:25;;;;;;;29.00;13.40;;;;;;;-1.08;100.00;101605.73;109176;1251;58693;-72
2023/01/13 04:51:54;;;;;;;34.50;13.50;;;;;;;-1.08;100.00;101605.21;109282;1251;74322;-72
2023/01/13 04:54:22;;;;;;;23.70;13.90;;;;;;;-1.07;100.00;101608.45;109344;1250;71743;-70
2023/01/13 04:56:51;;;;;;;26.80;13.00;;;;;;;-1.13;100.00;101607.14;109321;1251;69118;-73
2023/01/13 04:59:20;;;;;;;27.10;13.60;;;;;;;-1.15;100.00;101609.22;109306;1251;71883;-70
2023/01/13 05:01:49;;;;;;;26.60;14.80;;;;;;;-1.16;100.00;101610.77;109220;1251;61890;-71
2023/01/13 05:04:18;;;;;;;27.10;14.60;;;;;;;-1.13;100.00;101613.48;109263;1251;60442;-73
2023/01/13 05:06:47;;;;;;;24.60;12.20;;;;;;;-1.12;100.00;101611.08;109258;1251;71616;-70
2023/01/13 05:09:16;;;;;;;24.70;12.80;;;;;;;-1.10;100.00;101614.98;109067;1253;70354;-71
2023/01/13 05:17:23;;;;;;;29.40;13.80;;;;;;;-1.23;100.00;101616.98;109110;1254;62889;-71
2023/01/13 05:19:51;;;;;;;24.40;12.40;;;;;;;-1.23;100.00;101615.96;108869;1254;60571;-71
2023/01/13 05:25:23;;;;;;;26.00;12.90;;;;;;;-1.21;100.00;101616.63;109098;1251;71618;-71
2023/01/13 05:27:52;;;;;;;20.40;12.50;;;;;;;-1.23;100.00;101624.01;109146;1251;69408;-71
2023/01/13 05:30:25;;;;;;;21.00;11.70;;;;;;;-1.46;100.00;101624.70;109254;1251;72376;-70
2023/01/13 05:32:54;;;;;;;20.10;10.50;;;;;;;-1.57;100.00;101627.37;108958;1251;62160;-72
2023/01/13 05:35:24;;;;;;;24.40;12.90;;;;;;;-1.61;100.00;101631.83;109178;1251;59685;-71
2023/01/13 05:37:54;;;;;;;25.00;12.90;;;;;;;-1.58;100.00;101629.74;108942;1251;72428;-71
2023/01/13 05:43:19;;;;;;;26.80;13.40;;;;;;;-1.39;100.00;101635.08;109155;1251;67889;-70
2023/01/13 05:46:00;;;;;;;25.90;13.20;;;;;;;-1.40;100.00;101633.38;109082;1251;70188;-70
2023/01/13 05:48:31;;;;;;;23.50;12.60;;;;;;;-1.37;100.00;101633.18;109081;1254;60488;-70
2023/01/13 05:51:02;;;;;;;24.40;12.20;;;;;;;-1.42;100.00;101631.16;109145;1251;58805;-72
2023/01/13 05:53:32;;;;;;;23.20;12.30;;;;;;;-1.49;100.00;101632.94;108925;1251;71749;-73
2023/01/13 05:56:04;;;;;;;29.40;13.60;;;;;;;-1.51;100.00;101632.95;109245;1251;72217;-73
2023/01/13 05:58:34;;;;;;;22.60;13.10;;;;;;;-1.53;100.00;101637.73;109167;1251;70339;-72
2023/01/13 06:01:06;;;;;;;22.10;13.50;;;;;;;-1.54;100.00;101639.98;109173;1251;72735;-72
2023/01/13 06:03:36;;;;;;;24.50;14.40;;;;;;;-1.57;100.00;101641.36;109088;1250;61127;-73
2023/01/13 06:06:07;;;;;;;21.90;13.10;;;;;;;-1.58;100.00;101638.64;109194;1251;59715;-73
2023/01/13 06:08:36;;;;;;;29.80;14.50;;;;;;;-1.51;100.00;101639.09;109186;1250;74886;-71
2023/01/13 06:11:07;;;;;;;29.40;13.60;;;;;;;-1.55;100.00;101643.23;109252;1250;70898;-72
2023/01/13 06:13:36;;;;;;;26.00;14.40;;;;;;;-1.58;100.00;101643.94;108848;1251;67996;-78
2023/01/13 06:16:05;;;;;;;27.40;14.60;;;;;;;-1.60;100.00;101646.86;109234;1250;73016;-74
2023/01/13 06:18:34;;;;;;;29.20;15.00;;;;;;;-1.60;100.00;101643.95;109137;1252;60906;-73
2023/01/13 06:21:04;;;;;;;28.30;14.00;;;;;;;-1.63;100.00;101641.59;109151;1251;59666;-70
2023/01/13 06:23:37;;;;;;;32.30;15.20;;;;;;;-1.67;100.00;101640.23;109009;1250;74383;-70
2023/01/13 06:26:17;;;;;;;28.40;14.70;;;;;;;-1.69;100.00;101644.88;108881;1250;70296;-71
2023/01/13 06:28:48;;;;;;;30.40;14.10;;;;;;;-1.72;100.00;101644.38;109085;1250;70959;-73
2023/01/13 06:31:18;;;;;;;37.30;15.60;;;;;;;-1.67;100.00;101644.34;109065;1250;71401;-69
2023/01/13 06:33:55;;;;;;;31.50;15.20;;;;;;;-1.65;100.00;101642.80;109112;1250;59682;-71
2023/01/13 06:36:31;;;;;;;29.40;14.10;;;;;;;-1.56;100.00;101644.27;109040;1250;61255;-70
2023/01/13 06:39:02;;;;;;;30.70;14.90;;;;;;;-1.50;100.00;101647.12;109029;1250;73271;-71
2023/01/13 06:44:22;;;;;;;25.60;14.40;;;;;;;-1.48;100.00;101650.02;108842;1251;70057;-72
2023/01/13 06:46:51;;;;;;;35.20;15.90;;;;;;;-1.43;100.00;101658.85;108847;1251;72460;-72
2023/01/13 06:49:20;;;;;;;31.20;16.30;;;;;;;-1.34;100.00;101660.33;108781;1254;60792;-71
2023/01/13 06:51:49;;;;;;;30.90;15.30;;;;;;;-1.23;100.00;101657.83;108724;1251;59622;-73
2023/01/13 06:54:18;;;;;;;31.40;17.20;;;;;;;-1.18;100.00;101658.82;108999;1254;73059;-72
2023/01/13 06:56:47;;;;;;;33.20;15.00;;;;;;;-1.13;100.00;101660.49;108851;1251;71538;-72
2023/01/13 06:59:15;;;;;;;31.50;16.30;;;;;;;-1.18;100.00;101656.44;108944;1251;70383;-71
2023/01/13 07:01:44;;;;;;;35.40;16.00;;;;;;;-1.21;100.00;101657.30;108795;1251;72370;-72
2023/01/13 07:04:13;;;;;;;31.30;16.60;;;;;;;-1.14;100.00;101655.87;108634;1251;60525;-71
2023/01/13 07:06:42;;;;;;;33.70;16.20;;;;;;;-1.10;100.00;101654.81;108882;1251;58721;-71
2023/01/13 07:09:11;;;;;;;32.30;16.50;;;;;;;-1.18;100.00;101654.89;108906;1251;73758;-71
2023/01/13 07:11:40;;;;;;;35.20;16.60;;;;;;;-1.03;100.00;101649.11;108902;1251;71377;-71
2023/01/13 07:16:56;;;;;;;27.80;15.40;;;;;;;-1.14;100.00;101652.64;108912;1251;72286;-72
2023/01/13 07:19:25;;;;;;;32.40;15.50;;;;;;;-1.08;100.00;101658.57;108983;1252;60137;-71
2023/01/13 07:21:54;;;;;;;27.40;15.90;;;;;;;-1.03;100.00;101660.91;108899;1250;61224;-72
2023/01/13 07:24:22;;;;;;;28.80;14.70;;;;;;;-1.01;100.00;101659.70;108745;1250;73117;-71
2023/01/13 07:26:51;;;;;;;30.30;14.80;;;;;;;-1.02;100.00;101662.61;108919;1250;69639;-71
2023/01/13 07:29:20;;;;;;;32.30;14.80;;;;;;;-0.92;100.00;101658.41;108758;1250;67480;-71
2023/01/13 07:31:49;;;;;;;32.10;14.90;;;;;;;-0.83;100.00;101656.44;108985;1250;71108;-71
2023/01/13 07:34:18;;;;;;;34.70;16.00;;;;;;;-0.86;100.00;101657.84;108894;1251;59784;-70
2023/01/13 07:36:47;;;;;;;31.70;15.20;;;;;;;-0.80;100.00;101658.80;109000;1250;59323;-70
2023/01/13 07:39:16;;;;;;;27.90;15.50;;;;;;;-0.80;100.00;101658.11;108960;1251;74440;-69
2023/01/13 07:44:32;;;;;;;27.50;13.90;;;;;;;-0.77;100.00;101660.48;108922;1250;68068;-71
2023/01/13 07:47:01;;;;;;;29.60;14.70;;;;;;;-0.63;99.99;101656.74;109008;1250;73083;-71
2023/01/13 07:49:29;;;;;;;27.00;15.40;;;;;;;-0.47;99.82;101651.77;108750;1250;62018;-70
2023/01/13 07:51:58;;;;;;;28.80;15.20;;;;;;;-0.45;99.63;101652.77;108946;1250;60717;-71
2023/01/13 07:54:27;;;;;;;25.20;13.80;;;;;;;-0.38;98.93;101649.60;108935;1250;71498;-70
2023/01/13 07:57:08;;;;;;;31.60;14.00;;;;;;;-0.43;98.53;101655.48;108953;1254;71337;-71
2023/01/13 07:59:37;;;;;;;28.40;14.70;;;;;;;-0.37;98.85;101652.33;108954;1250;70013;-73
2023/01/13 08:02:10;;;;;;;27.20;13.40;;;;;;;-0.19;99.94;101655.88;109001;1250;73511;-75
2023/01/13 08:04:39;;;;;;;30.70;15.00;;;;;;;-0.13;98.63;101656.83;108943;1250;60218;-69
2023/01/13 08:07:08;;;;;;;24.60;13.70;;;;;;;-0.10;98.26;101658.65;108900;1250;59446;-70
2023/01/13 08:09:37;;;;;;;29.80;14.90;;;;;;;-0.10;97.70;101656.27;109135;1250;72408;-71
2023/01/13 08:14:53;;;;;;;25.00;13.70;;;;;;;0.01;97.25;101654.76;108988;1250;68600;-69
2023/01/13 08:17:23;;;;;;;26.10;13.80;;;;;;;0.06;97.75;101661.55;108944;1250;71865;-69
2023/01/13 08:19:52;;;;;;;34.30;15.30;;;;;;;0.26;97.45;101660.75;109013;1250;61273;-69
2023/01/13 08:22:21;;;;;;;21.90;13.90;;;;;;;0.30;96.64;101660.17;109121;1250;61140;-72
2023/01/13 08:24:50;;;;;;;27.20;14.60;;;;;;;0.36;96.57;101662.98;109135;1250;72193;-70
2023/01/13 08:27:19;;;;;;;30.90;16.20;;;;;;;0.40;96.53;101663.77;109116;1250;69805;-72
2023/01/13 08:29:48;;;;;;;25.70;14.50;;;;;;;0.54;96.13;101658.27;109098;1250;68649;-72
2023/01/13 08:32:17;;;;;;;26.60;14.80;;;;;;;0.74;95.71;101656.92;109119;1251;73876;-72
2023/01/13 08:34:45;;;;;;;25.00;14.00;;;;;;;0.75;95.06;101656.54;109091;1251;61174;-73
2023/01/13 08:37:14;;;;;;;27.90;15.20;;;;;;;0.88;95.56;101646.90;109133;1250;60256;-73
2023/01/13 08:39:43;;;;;;;26.00;14.60;;;;;;;0.87;94.18;101641.95;109105;1250;72363;-73
2023/01/13 08:42:12;;;;;;;31.50;19.80;;;;;;;0.95;94.04;101641.29;108807;1250;70347;-72
2023/01/13 08:44:41;;;;;;;26.90;16.00;;;;;;;0.93;94.07;101640.64;109094;1250;68593;-72
2023/01/13 08:47:10;;;;;;;28.00;14.50;;;;;;;0.95;95.38;101635.11;109167;1250;73887;-71
2023/01/13 08:49:39;;;;;;;26.30;15.70;;;;;;;0.98;93.99;101631.45;109135;1251;61680;-73
2023/01/13 08:52:08;;;;;;;24.40;13.30;;;;;;;1.00;94.32;101629.52;109137;1250;60835;-73
2023/01/13 08:54:38;;;;;;;25.40;14.50;;;;;;;1.01;94.14;101628.66;109173;1250;74367;-73
2023/01/13 08:57:07;;;;;;;24.70;13.40;;;;;;;0.99;93.94;101627.84;108896;1254;70001;-72
2023/01/13 08:59:36;;;;;;;29.00;13.40;;;;;;;1.02;94.61;101625.23;109178;1250;68655;-72
2023/01/13 09:02:14;;;;;;;25.80;15.00;;;;;;;1.25;94.48;101626.83;108934;1250;72383;-72
2023/01/13 09:04:44;;;;;;;24.70;15.20;;;;;;;1.36;94.45;101623.38;108912;1253;59728;-69
2023/01/13 09:07:13;;;;;;;28.10;14.80;;;;;;;1.45;92.48;101621.13;109097;1250;60481;-70
2023/01/13 09:09:42;;;;;;;26.80;15.10;;;;;;;1.55;92.76;101619.37;109156;1250;73422;-71
2023/01/13 09:15:05;;;;;;;28.80;14.70;;;;;;;1.42;93.31;101620.32;109005;1250;60161;-71
2023/01/13 09:17:33;;;;;;;29.30;15.00;;;;;;;1.42;93.62;101621.87;108836;1250;73119;-73
2023/01/13 09:20:04;;;;;;;28.30;15.60;;;;;;;1.44;93.96;101620.28;109133;1251;61176;-71
2023/01/13 09:22:35;;;;;;;29.60;15.10;;;;;;;1.67;93.29;101618.27;108946;1250;60841;-70
2023/01/13 09:25:04;;;;;;;26.10;12.90;;;;;;;1.65;93.00;101619.52;108988;1250;74798;-71
2023/01/13 09:27:35;;;;;;;28.50;16.40;;;;;;;1.56;92.81;101615.58;109137;1250;72780;-72
2023/01/13 09:30:05;;;;;;;28.30;15.60;;;;;;;1.62;93.18;101612.36;109170;1250;68623;-74
2023/01/13 09:32:37;;;;;;;26.60;15.00;;;;;;;1.76;92.09;101612.57;108968;1254;71941;-72
2023/01/13 09:35:06;;;;;;;31.00;16.30;;;;;;;1.71;92.41;101611.65;109155;1251;61386;-72
2023/01/13 09:37:39;;;;;;;28.90;16.20;;;;;;;1.74;92.24;101613.31;108905;1256;59857;-71
2023/01/13 09:40:21;;;;;;;28.50;15.50;;;;;;;1.86;92.17;101615.81;109185;1250;73565;-71
2023/01/13 09:46:42;;;;;;;32.20;17.10;;;;;;;1.93;89.53;101614.09;109193;1250;69471;-72
2023/01/13 09:48:58;;;;;;;34.40;17.30;;;;;;;1.85;89.89;101618.07;109145;1250;74333;-72
2023/01/13 09:51:44;;;;;;;32.30;15.90;;;;;;;2.03;90.24;101620.59;109099;1251;61706;-73
2023/01/13 09:55:00;;;;;;;28.80;16.10;;;;;;;1.94;91.51;101618.40;109122;1251;58299;-72
2023/01/13 09:57:33;;;;;;;34.30;18.70;;;;;;;1.99;91.35;101613.28;109116;1250;72748;-72
2023/01/13 10:00:09;;;;;;;;;;;;;;;2.26;91.67;101607.69;108851;1250;72253;-72
2023/01/13 10:03:05;;;;;;;33.20;18.90;;;;;;;2.21;90.87;101603.16;109168;1250;70936;-71
2023/01/13 10:05:49;;;;;;;34.40;16.80;;;;;;;2.38;91.31;101601.88;108899;1250;64634;-71
2023/01/13 10:08:28;;;;;;;27.80;16.40;;;;;;;2.56;90.47;101597.33;109066;1252;59566;-70
2023/01/13 10:14:15;;;;;;;29.80;16.80;;;;;;;2.84;89.26;101583.71;109118;1250;73533;-72
2023/01/13 10:17:04;;;;;;;27.90;17.20;;;;;;;2.87;88.12;101577.44;109147;1251;70706;-74
2023/01/13 10:19:51;;;;;;;31.40;15.40;;;;;;;3.00;88.19;101579.84;109020;1253;60726;-74
2023/01/13 10:23:03;;;;;;;32.70;15.80;;;;;;;3.08;87.05;101582.39;109008;1250;63251;-73
2023/01/13 10:26:01;;;;;;;26.10;14.90;;;;;;;2.98;87.35;101578.86;108917;1254;61367;-73
2023/01/13 10:28:30;;;;;;;27.80;15.20;;;;;;;3.13;87.93;101575.01;109185;1250;60549;-77
2023/01/13 10:31:09;;;;;;;29.40;16.30;;;;;;;3.06;88.80;101576.23;109174;1250;73941;-73
2023/01/13 10:33:37;;;;;;;24.40;14.70;;;;;;;3.04;88.59;101575.59;109157;1250;72693;-75
2023/01/13 10:36:14;;;;;;;26.60;14.30;;;;;;;3.01;88.32;101571.22;109257;1250;70769;-78
2023/01/13 10:38:46;;;;;;;24.30;13.80;;;;;;;3.17;86.97;101565.60;109140;1251;65176;-77
2023/01/13 10:41:14;;;;;;;29.60;14.60;;;;;;;3.36;85.99;101567.48;109167;1250;61360;-73
2023/01/13 10:43:58;;;;;;;31.20;15.40;;;;;;;3.56;85.43;101563.10;109101;1250;60305;-74
2023/01/13 10:46:28;;;;;;;26.20;14.50;;;;;;;3.80;84.67;101559.61;108864;1250;76152;-72
2023/01/13 10:49:01;;;;;;;25.30;15.20;;;;;;;3.73;84.37;101565.50;109099;1251;60821;-74
2023/01/13 10:51:36;;;;;;;27.20;13.70;;;;;;;3.60;83.40;101569.36;108873;1250;70423;-74
2023/01/13 10:54:13;;;;;;;26.10;13.60;;;;;;;3.45;83.74;101565.66;108903;1250;73864;-72
2023/01/13 10:56:44;;;;;;;28.00;15.00;;;;;;;3.62;83.85;101563.60;109118;1253;58329;-73
2023/01/13 10:59:22;;;;;;;29.50;15.60;;;;;;;3.56;83.33;101564.98;108900;1250;60241;-72
2023/01/13 11:02:15;;;;;;;25.20;14.40;;;;;;;3.56;83.34;101564.13;109090;1251;64265;-76
2023/01/13 11:04:53;;;;;;;22.90;14.00;;;;;;;3.44;84.51;101562.94;109094;1252;60914;-77
2023/01/13 11:07:49;;;;;;;23.80;14.30;;;;;;;3.35;84.14;101563.36;108949;1254;68634;-75
2023/01/13 11:10:31;;;;;;;27.80;15.50;;;;;;;3.17;85.06;101559.21;108832;1250;73412;-79
2023/01/13 11:13:13;;;;;;;23.20;14.60;;;;;;;3.11;85.36;101559.21;108902;1250;58391;-76
2023/01/13 11:16:15;;;;;;;27.10;14.30;;;;;;;3.10;85.39;101554.61;108954;1250;60904;-74
2023/01/13 11:19:01;;;;;;;25.80;14.00;;;;;;;2.93;86.00;101554.38;108975;1251;63824;-75
2023/01/13 11:21:40;;;;;;;28.40;14.20;;;;;;;2.96;86.06;101550.52;109119;1250;72255;-74
2023/01/13 11:24:43;;;;;;;31.10;15.80;;;;;;;2.91;87.03;101549.45;109114;1250;70828;-74
2023/01/13 11:27:29;;;;;;;22.40;14.50;;;;;;;2.77;87.18;101548.46;109070;1254;63706;-75
2023/01/13 11:30:19;;;;;;;31.10;15.60;;;;;;;2.81;87.71;101546.45;108953;1251;59952;-73
2023/01/13 11:33:03;;;;;;;28.20;14.30;;;;;;;2.85;87.43;101538.08;109089;1254;60837;-74
2023/01/13 11:35:40;;;;;;;25.80;14.90;;;;;;;2.78;86.71;101537.23;109089;1251;64352;-75
2023/01/13 11:38:30;;;;;;;26.50;13.30;;;;;;;2.86;86.41;101539.42;109012;1250;71227;-75
2023/01/13 11:41:15;;;;;;;25.00;13.70;;;;;;;3.02;86.56;101539.15;109172;1250;70318;-76
2023/01/13 11:44:02;;;;;;;27.90;14.50;;;;;;;3.07;86.39;101541.08;108757;1257;63524;-76
2023/01/13 11:46:31;;;;;;;23.60;14.60;;;;;;;3.12;87.08;101541.83;109039;1250;57866;-74
2023/01/13 11:49:01;;;;;;;35.00;16.00;;;;;;;2.94;88.10;101541.46;109154;1250;58348;-74
2023/01/13 11:51:45;;;;;;;29.10;14.90;;;;;;;2.98;87.81;101540.33;108990;1250;74091;-75
2023/01/13 11:54:26;;;;;;;25.50;14.10;;;;;;;3.02;87.46;101536.95;109129;1254;61937;-74
2023/01/13 11:57:39;;;;;;;23.20;13.20;;;;;;;3.09;87.80;101535.35;109141;1250;69816;-75
2023/01/13 12:00:35;;;;;;;28.20;14.60;;;;;;;3.11;86.76;101536.33;109030;1254;63141;-75
2023/01/13 12:03:32;;;;;;;27.00;14.00;;;;;;;3.05;86.65;101533.59;108980;1251;58334;-74
2023/01/13 12:06:18;;;;;;;24.80;14.70;;;;;;;2.86;88.21;101524.99;108783;1253;58156;-74
2023/01/13 12:09:31;;;;;;;25.10;14.10;;;;;;;2.85;88.09;101525.53;108887;1254;63812;-75
2023/01/13 12:12:18;;;;;;;24.30;14.70;;;;;;;2.99;87.92;101528.77;109147;1250;72236;-76
2023/01/13 12:15:05;;;;;;;24.20;11.90;;;;;;;2.78;88.87;101526.90;108934;1255;60171;-77
2023/01/13 12:18:07;;;;;;;26.10;14.60;;;;;;;2.70;88.56;101520.94;109136;1250;73443;-74